createdAt,value
2017-10-25T00:03:44.029Z,80.30
2017-10-25T00:06:10.239Z,80.30
2017-10-25T00:08:36.447Z,80.70
2017-10-25T00:11:02.605Z,80.20
2017-10-25T00:13:28.774Z,80.30
2017-10-25T00:15:54.991Z,80.40
2017-10-25T00:18:21.908Z,80.60
2017-10-25T00:20:48.883Z,80.40
2017-10-25T00:23:15.097Z,80.40
2017-10-25T00:25:42.047Z,80.80
2017-10-25T00:28:08.980Z,80.40
2017-10-25T00:30:35.897Z,80.70
2017-10-25T00:33:02.114Z,80.70
2017-10-25T00:35:28.316Z,80.70
2017-10-25T00:37:54.502Z,80.20
2017-10-25T00:40:20.741Z,80.30
2017-10-25T00:42:47.676Z,80.80
2017-10-25T00:45:13.818Z,80.60
2017-10-25T00:47:40.721Z,80.70
2017-10-25T00:50:06.908Z,80.60
2017-10-25T00:52:33.111Z,80.70
2017-10-25T00:55:00.080Z,80.90
2017-10-25T00:57:26.293Z,80.90
2017-10-25T00:59:53.292Z,80.80
2017-10-25T01:02:19.460Z,80.80
2017-10-25T01:04:45.676Z,80.40
2017-10-25T01:07:12.652Z,80.90
2017-10-25T01:09:38.832Z,80.90
2017-10-25T01:12:05.076Z,80.40
2017-10-25T01:14:31.250Z,80.70
2017-10-25T01:16:57.441Z,80.50
2017-10-25T01:19:23.650Z,80.60
2017-10-25T01:21:49.850Z,80.50
2017-10-25T01:24:16.036Z,80.60
2017-10-25T01:26:43.003Z,80.60
2017-10-25T01:29:09.232Z,80.60
2017-10-25T01:31:35.388Z,80.50
2017-10-25T01:34:01.671Z,80.40
2017-10-25T01:36:27.870Z,80.60
2017-10-25T01:38:54.092Z,80.60
2017-10-25T01:41:20.336Z,80.40
2017-10-25T01:43:46.536Z,80.80
2017-10-25T01:46:12.739Z,80.90
2017-10-25T01:48:38.946Z,80.70
2017-10-25T01:51:05.922Z,81.10
2017-10-25T01:53:32.154Z,81.10
2017-10-25T01:55:58.352Z,80.90
2017-10-25T01:58:24.545Z,80.30
2017-10-25T02:00:50.917Z,81.10
2017-10-25T02:03:17.135Z,80.70
2017-10-25T02:05:43.325Z,81.00
2017-10-25T02:08:09.512Z,80.90
2017-10-25T02:10:35.692Z,81.20
2017-10-25T02:13:01.941Z,81.00
2017-10-25T02:15:28.928Z,81.00
2017-10-25T02:17:55.108Z,80.90
2017-10-25T02:20:22.055Z,80.70
2017-10-25T02:22:48.968Z,81.00
2017-10-25T02:25:15.240Z,81.00
2017-10-25T02:27:41.472Z,81.20
2017-10-25T02:30:07.724Z,81.10
2017-10-25T02:32:33.912Z,80.20
2017-10-25T02:35:00.813Z,81.10
2017-10-25T02:37:26.976Z,81.10
2017-10-25T02:39:53.842Z,81.20
2017-10-25T02:42:20.055Z,80.90
2017-10-25T02:44:46.993Z,80.90
2017-10-25T02:47:14.109Z,80.70
2017-10-25T02:49:40.633Z,80.70
2017-10-25T02:52:06.812Z,80.80
2017-10-25T02:54:33.698Z,80.90
2017-10-25T02:56:59.931Z,80.90
2017-10-25T02:59:26.058Z,81.00
2017-10-25T03:01:52.244Z,80.70
2017-10-25T03:04:18.392Z,80.80
2017-10-25T03:06:44.542Z,80.70
2017-10-25T03:09:10.747Z,80.70
2017-10-25T03:11:36.972Z,80.40
2017-10-25T03:14:03.187Z,80.60
2017-10-25T03:16:29.333Z,80.80
2017-10-25T03:18:55.517Z,80.60
2017-10-25T03:21:22.623Z,80.60
2017-10-25T03:23:48.883Z,80.20
2017-10-25T03:26:15.093Z,80.30
2017-10-25T03:28:41.289Z,79.90
2017-10-25T03:31:07.465Z,80.20
2017-10-25T03:33:33.629Z,80.20
2017-10-25T03:35:59.868Z,80.70
2017-10-25T03:38:26.074Z,80.20
2017-10-25T03:40:52.976Z,80.00
2017-10-25T03:43:19.193Z,79.90
2017-10-25T03:45:45.379Z,80.30
2017-10-25T03:48:12.334Z,80.10
2017-10-25T03:50:38.457Z,80.10
2017-10-25T03:53:04.585Z,80.00
2017-10-25T03:55:30.735Z,79.70
2017-10-25T03:57:56.963Z,80.50
2017-10-25T04:00:23.133Z,80.00
2017-10-25T04:02:49.305Z,80.60
2017-10-25T04:05:15.495Z,79.90
2017-10-25T04:07:42.463Z,80.60
2017-10-25T04:10:08.676Z,80.60
2017-10-25T04:12:35.700Z,80.30
2017-10-25T04:15:01.924Z,80.30
2017-10-25T04:17:28.073Z,80.70
2017-10-25T04:19:55.029Z,81.80
2017-10-25T04:22:22.285Z,81.20
2017-10-25T04:24:49.224Z,82.60
2017-10-25T04:27:16.155Z,81.90
2017-10-25T04:29:43.163Z,83.50
2017-10-25T04:32:09.347Z,82.70
2017-10-25T04:34:35.552Z,82.50
2017-10-25T04:37:02.723Z,84.00
2017-10-25T04:39:29.598Z,83.70
2017-10-25T04:41:55.750Z,83.70
2017-10-25T04:44:21.919Z,84.00
2017-10-25T04:46:48.830Z,83.90
2017-10-25T04:49:14.969Z,83.90
2017-10-25T04:51:41.164Z,84.60
2017-10-25T04:54:07.387Z,84.60
2017-10-25T04:56:33.590Z,84.70
2017-10-25T04:58:59.823Z,85.10
2017-10-25T05:01:25.991Z,84.90
2017-10-25T05:03:52.141Z,85.50
2017-10-25T05:06:18.294Z,85.50
2017-10-25T05:08:44.484Z,85.40
2017-10-25T05:11:10.731Z,85.40
2017-10-25T05:13:37.648Z,84.90
2017-10-25T05:16:03.798Z,84.80
2017-10-25T05:18:30.028Z,85.40
2017-10-25T05:20:56.911Z,85.10
2017-10-25T05:23:23.093Z,85.00
2017-10-25T05:25:49.265Z,85.90
2017-10-25T05:28:15.473Z,85.30
2017-10-25T05:30:41.706Z,85.80
2017-10-25T05:33:07.859Z,85.70
2017-10-25T05:35:33.999Z,85.90
2017-10-25T05:38:00.193Z,85.10
2017-10-25T05:40:26.418Z,85.40
2017-10-25T05:42:52.568Z,86.10
2017-10-25T05:45:18.751Z,85.60
2017-10-25T05:47:45.671Z,85.60
2017-10-25T05:50:11.836Z,85.60
2017-10-25T05:52:38.706Z,86.40
2017-10-25T05:55:05.226Z,86.40
2017-10-25T05:57:31.467Z,86.10
2017-10-25T05:59:57.693Z,85.50
2017-10-25T06:02:23.892Z,86.10
2017-10-25T06:04:50.813Z,85.60
2017-10-25T06:07:16.978Z,85.60
2017-10-25T06:09:43.148Z,86.00
2017-10-25T06:12:09.336Z,86.30
2017-10-25T06:14:35.605Z,86.50
2017-10-25T06:17:01.790Z,86.70
2017-10-25T06:19:27.999Z,86.30
2017-10-25T06:21:54.968Z,86.20
2017-10-25T06:24:21.156Z,86.20
2017-10-25T06:26:47.723Z,85.80
2017-10-25T06:29:13.880Z,85.60
2017-10-25T06:31:40.100Z,86.30
2017-10-25T06:34:06.656Z,86.60
2017-10-25T06:36:33.776Z,86.60
2017-10-25T06:38:59.999Z,86.60
2017-10-25T06:41:26.587Z,86.60
2017-10-25T06:43:53.523Z,86.60
2017-10-25T06:46:20.470Z,86.70
2017-10-25T06:48:46.907Z,86.70
2017-10-25T06:51:13.096Z,85.90
2017-10-25T06:53:39.308Z,86.50
2017-10-25T06:56:05.595Z,86.60
2017-10-25T06:58:31.827Z,86.80
2017-10-25T07:00:57.981Z,87.10
2017-10-25T07:03:24.869Z,86.60
2017-10-25T07:05:51.029Z,86.60
2017-10-25T07:08:18.096Z,86.30
2017-10-25T07:10:44.953Z,87.60
2017-10-25T07:13:11.848Z,87.10
2017-10-25T07:15:38.048Z,87.10
2017-10-25T07:18:04.247Z,86.70
2017-10-25T07:20:30.444Z,87.30
2017-10-25T07:22:56.605Z,87.10
2017-10-25T07:25:23.484Z,87.50
2017-10-25T07:27:49.653Z,87.40
2017-10-25T07:30:15.793Z,86.50
2017-10-25T07:32:42.707Z,87.00
2017-10-25T07:35:08.865Z,87.00
2017-10-25T07:37:35.825Z,86.80
2017-10-25T07:40:01.974Z,86.80
2017-10-25T07:42:28.186Z,86.50
2017-10-25T07:44:54.370Z,86.00
2017-10-25T07:47:21.328Z,86.50
2017-10-25T07:49:48.291Z,86.90
2017-10-25T07:52:14.512Z,86.90
2017-10-25T07:54:41.508Z,86.30
2017-10-25T07:57:07.779Z,86.20
2017-10-25T07:59:34.816Z,86.50
2017-10-25T08:02:01.804Z,86.10
2017-10-25T08:04:28.001Z,86.10
2017-10-25T08:06:54.940Z,87.30
2017-10-25T08:09:21.877Z,86.40
2017-10-25T08:11:48.096Z,86.30
2017-10-25T08:14:14.291Z,86.80
2017-10-25T08:16:40.511Z,86.40
2017-10-25T08:19:06.716Z,86.70
2017-10-25T08:21:32.900Z,86.30
2017-10-25T08:23:59.097Z,87.00
2017-10-25T08:26:25.656Z,86.40
2017-10-25T08:28:51.840Z,87.00
2017-10-25T08:31:18.026Z,87.50
2017-10-25T08:33:44.211Z,86.90
2017-10-25T08:36:10.370Z,86.80
2017-10-25T08:38:36.582Z,86.70
2017-10-25T08:41:02.844Z,86.90
2017-10-25T08:43:29.041Z,86.10
2017-10-25T08:45:55.268Z,86.70
2017-10-25T08:48:21.967Z,86.90
2017-10-25T08:50:48.360Z,86.50
2017-10-25T08:53:14.616Z,86.60
2017-10-25T08:55:41.798Z,85.50
2017-10-25T08:58:08.065Z,85.50
2017-10-25T09:00:34.263Z,86.10
2017-10-25T09:03:00.503Z,86.90
2017-10-25T09:05:26.693Z,86.00
2017-10-25T09:07:53.653Z,85.30
2017-10-25T09:10:19.868Z,85.10
2017-10-25T09:12:46.793Z,84.00
2017-10-25T09:15:13.764Z,84.50
2017-10-25T09:17:40.016Z,84.40
2017-10-25T09:20:06.160Z,83.70
2017-10-25T09:22:32.390Z,83.90
2017-10-25T09:24:58.583Z,84.40
2017-10-25T09:27:24.757Z,84.00
2017-10-25T09:29:50.911Z,83.40
2017-10-25T09:32:17.849Z,84.70
2017-10-25T09:34:44.836Z,84.20
2017-10-25T09:37:11.052Z,84.10
2017-10-25T09:39:37.289Z,83.90
2017-10-25T09:42:03.449Z,84.20
2017-10-25T09:44:29.692Z,83.70
2017-10-25T09:46:55.907Z,82.80
2017-10-25T09:49:22.100Z,82.50
2017-10-25T09:51:48.322Z,83.10
2017-10-25T09:54:21.600Z,83.40
2017-10-25T09:56:48.528Z,81.20
2017-10-25T09:59:15.508Z,81.80
2017-10-25T10:01:41.661Z,81.10
2017-10-25T10:04:07.860Z,81.10
2017-10-25T10:06:34.083Z,82.00
2017-10-25T10:09:00.257Z,82.00
2017-10-25T10:11:26.493Z,82.50
2017-10-25T10:13:52.740Z,81.80
2017-10-25T10:16:19.134Z,82.00
2017-10-25T10:18:45.370Z,81.70
2017-10-25T10:21:11.558Z,80.90
2017-10-25T10:23:38.511Z,81.60
2017-10-25T10:26:04.700Z,81.50
2017-10-25T10:28:30.841Z,81.60
2017-10-25T10:30:57.804Z,79.30
2017-10-25T10:33:24.016Z,79.30
2017-10-25T10:35:50.941Z,78.00
2017-10-25T10:38:17.147Z,78.00
2017-10-25T10:40:43.357Z,78.90
2017-10-25T10:43:09.908Z,77.10
2017-10-25T10:45:36.070Z,76.00
2017-10-25T10:48:02.327Z,76.70
2017-10-25T10:50:28.528Z,75.40
2017-10-25T10:52:55.468Z,76.60
2017-10-25T10:55:22.425Z,74.20
2017-10-25T10:57:49.313Z,74.40
2017-10-25T11:00:15.587Z,74.30
2017-10-25T11:02:42.537Z,73.60
2017-10-25T11:05:09.467Z,74.50
2017-10-25T11:07:35.672Z,73.50
2017-10-25T11:10:01.928Z,75.20
2017-10-25T11:12:28.187Z,74.30
2017-10-25T11:14:54.433Z,75.10
2017-10-25T11:17:21.785Z,74.30
2017-10-25T11:19:47.938Z,74.50
2017-10-25T11:22:14.160Z,73.90
2017-10-25T11:24:40.358Z,74.00
2017-10-25T11:27:06.530Z,74.60
2017-10-25T11:29:32.753Z,74.40
2017-10-25T11:31:58.973Z,75.10
2017-10-25T11:34:25.194Z,75.50
2017-10-25T11:36:51.367Z,75.20
2017-10-25T11:39:17.713Z,75.30
2017-10-25T11:41:44.685Z,77.30
2017-10-25T11:44:10.888Z,76.40
2017-10-25T11:46:37.863Z,77.00
2017-10-25T11:49:04.052Z,77.00
2017-10-25T11:51:30.963Z,76.30
2017-10-25T11:53:57.339Z,76.30
2017-10-25T11:56:24.327Z,77.80
2017-10-25T11:58:50.473Z,77.80
2017-10-25T12:01:16.693Z,76.70
2017-10-25T12:03:42.897Z,77.00
2017-10-25T12:06:09.097Z,76.50
2017-10-25T12:08:35.319Z,77.30
2017-10-25T12:11:02.268Z,77.50
2017-10-25T12:13:29.198Z,78.00
2017-10-25T12:15:55.336Z,78.00
2017-10-25T12:18:22.248Z,78.80
2017-10-25T12:20:48.419Z,78.70
2017-10-25T12:23:14.558Z,79.10
2017-10-25T12:25:40.693Z,78.80
2017-10-25T12:28:06.849Z,78.80
2017-10-25T12:30:32.965Z,79.20
2017-10-25T12:32:59.109Z,79.00
2017-10-25T12:35:25.298Z,78.60
2017-10-25T12:37:51.457Z,78.80
2017-10-25T12:40:17.679Z,78.40
2017-10-25T12:42:43.877Z,78.00
2017-10-25T12:45:10.145Z,77.80
2017-10-25T12:47:36.337Z,78.00
2017-10-25T12:50:02.524Z,78.40
2017-10-25T12:52:28.727Z,78.10
2017-10-25T12:54:54.969Z,76.80
2017-10-25T12:57:21.138Z,77.80
2017-10-25T12:59:47.721Z,77.50
2017-10-25T13:02:14.000Z,76.90
2017-10-25T13:04:40.170Z,77.90
2017-10-25T13:07:06.360Z,77.10
2017-10-25T13:09:32.494Z,77.60
2017-10-25T13:12:18.018Z,76.50
2017-10-25T13:15:35.390Z,76.60
2017-10-25T13:18:11.167Z,75.90
2017-10-25T13:20:37.461Z,74.80
2017-10-25T13:23:03.629Z,74.20
2017-10-25T13:25:29.797Z,71.60
2017-10-25T13:27:55.983Z,71.80
2017-10-25T13:30:22.141Z,71.50
2017-10-25T13:32:48.378Z,69.50
2017-10-25T13:35:14.561Z,69.20
2017-10-25T13:37:40.756Z,68.10
2017-10-25T13:40:06.965Z,68.00
2017-10-25T13:42:33.879Z,66.60
2017-10-25T13:45:00.054Z,66.50
2017-10-25T13:47:27.015Z,64.20
2017-10-25T13:49:53.319Z,64.20
2017-10-25T13:52:20.236Z,57.90
2017-10-25T13:54:46.513Z,57.70
2017-10-25T13:57:12.632Z,54.00
2017-10-25T13:59:39.893Z,53.20
2017-10-25T14:02:06.082Z,53.20
2017-10-25T14:04:32.224Z,54.70
2017-10-25T14:06:59.141Z,53.80
2017-10-25T14:09:25.375Z,53.90
2017-10-25T14:11:53.271Z,56.60
2017-10-25T14:14:20.165Z,57.00
2017-10-25T14:16:46.312Z,57.10
2017-10-25T14:19:12.424Z,57.20
2017-10-25T14:21:38.602Z,57.80
2017-10-25T14:24:05.525Z,59.30
2017-10-25T14:26:44.719Z,61.50
2017-10-25T14:29:10.897Z,60.60
2017-10-25T14:31:37.856Z,63.80
2017-10-25T14:34:04.090Z,63.70
2017-10-25T14:36:30.311Z,65.00
2017-10-25T14:38:56.548Z,65.50
2017-10-25T14:41:22.740Z,65.40
2017-10-25T14:43:48.885Z,65.70
2017-10-25T14:46:15.897Z,66.90
2017-10-25T14:48:42.122Z,66.90
2017-10-25T14:51:08.359Z,67.10
2017-10-25T14:53:34.514Z,68.10
2017-10-25T14:56:01.441Z,68.90
2017-10-25T14:58:27.580Z,68.90
2017-10-25T15:00:54.488Z,69.10
2017-10-25T15:03:20.653Z,69.20
2017-10-25T15:05:47.617Z,69.70
2017-10-25T15:08:13.824Z,69.60
2017-10-25T15:10:40.775Z,70.00
2017-10-25T15:13:07.719Z,69.90
2017-10-25T15:15:34.672Z,70.70
2017-10-25T15:18:01.260Z,70.70
2017-10-25T15:20:27.468Z,70.40
2017-10-25T15:22:53.642Z,70.60
2017-10-25T15:25:20.213Z,70.00
2017-10-25T15:27:46.357Z,69.60
2017-10-25T15:30:12.522Z,69.70
2017-10-25T15:32:38.687Z,70.00
2017-10-25T15:35:04.905Z,70.00
2017-10-25T15:37:31.792Z,69.70
2017-10-25T15:39:57.999Z,69.70
2017-10-25T15:42:24.200Z,69.60
2017-10-25T15:44:51.131Z,70.10
2017-10-25T15:47:17.297Z,70.10
2017-10-25T15:49:43.478Z,70.00
2017-10-25T15:52:09.652Z,70.40
2017-10-25T15:54:35.813Z,71.20
2017-10-25T15:57:01.971Z,71.10
2017-10-25T15:59:28.161Z,71.50
2017-10-25T16:01:54.373Z,72.40
2017-10-25T16:04:20.582Z,71.90
2017-10-25T16:06:46.716Z,72.10
2017-10-25T16:09:12.881Z,72.60
2017-10-25T16:11:39.085Z,72.80
2017-10-25T16:14:05.332Z,72.80
2017-10-25T16:16:31.533Z,73.30
2017-10-25T16:18:57.696Z,73.00
2017-10-25T16:21:23.865Z,73.30
2017-10-25T16:23:50.756Z,73.30
2017-10-25T16:26:16.973Z,73.30
2017-10-25T16:28:43.162Z,73.90
2017-10-25T16:31:10.085Z,78.20
2017-10-25T16:33:36.237Z,78.20
2017-10-25T16:36:03.125Z,75.90
2017-10-25T16:38:29.301Z,75.80
2017-10-25T16:40:56.178Z,73.80
2017-10-25T16:43:22.438Z,73.80
2017-10-25T16:45:48.617Z,73.80
2017-10-25T16:48:14.850Z,74.00
2017-10-25T16:50:41.053Z,74.00
2017-10-25T16:53:07.901Z,74.40
2017-10-25T16:55:34.873Z,74.40
2017-10-25T16:58:01.108Z,74.40
2017-10-25T17:00:27.392Z,74.30
2017-10-25T17:02:54.317Z,74.80
2017-10-25T17:05:20.555Z,74.70
2017-10-25T17:07:46.765Z,74.90
2017-10-25T17:10:12.959Z,74.90
2017-10-25T17:12:39.180Z,75.20
2017-10-25T17:15:05.365Z,75.40
2017-10-25T17:17:31.536Z,75.40
2017-10-25T17:19:57.779Z,75.60
2017-10-25T17:22:23.998Z,75.90
2017-10-25T17:24:50.215Z,76.00
2017-10-25T17:27:16.422Z,75.60
2017-10-25T17:29:43.346Z,76.40
2017-10-25T17:32:16.754Z,76.40
2017-10-25T17:34:43.709Z,75.70
2017-10-25T17:37:10.623Z,75.40
2017-10-25T17:39:36.770Z,75.40
2017-10-25T17:42:03.074Z,75.60
2017-10-25T17:44:29.238Z,75.50
2017-10-25T17:46:56.226Z,75.90
2017-10-25T17:49:22.422Z,75.90
2017-10-25T17:51:49.742Z,76.40
2017-10-25T17:54:16.036Z,76.30
2017-10-25T17:56:42.250Z,76.70
2017-10-25T17:59:08.524Z,76.80
2017-10-25T18:01:34.685Z,76.60
2017-10-25T18:04:01.627Z,77.80
2017-10-25T18:06:29.421Z,76.90
2017-10-25T18:08:55.952Z,76.90
2017-10-25T18:11:22.133Z,76.90
2017-10-25T18:13:48.328Z,76.90
2017-10-25T18:16:14.630Z,76.80
2017-10-25T18:18:40.859Z,76.40
2017-10-25T18:21:07.103Z,76.40
2017-10-25T18:23:33.328Z,76.20
2017-10-25T18:25:59.544Z,76.50
2017-10-25T18:28:25.732Z,76.70
2017-10-25T18:30:51.949Z,76.10
2017-10-25T18:33:18.187Z,77.10
2017-10-25T18:35:44.373Z,77.30
2017-10-25T18:38:10.545Z,77.10
2017-10-25T18:40:37.674Z,76.90
2017-10-25T18:43:03.865Z,76.70
2017-10-25T18:45:30.056Z,77.30
2017-10-25T18:47:57.052Z,77.40
2017-10-25T18:50:23.239Z,76.50
2017-10-25T18:52:50.110Z,76.90
2017-10-25T18:55:16.372Z,76.40
2017-10-25T18:57:42.570Z,76.90
2017-10-25T19:00:08.735Z,76.60
2017-10-25T19:02:34.942Z,77.30
2017-10-25T19:05:01.120Z,77.40
2017-10-25T19:07:28.076Z,77.60
2017-10-25T19:09:55.044Z,77.80
2017-10-25T19:12:21.231Z,77.70
2017-10-25T19:14:48.170Z,77.40
2017-10-25T19:17:14.338Z,77.40
2017-10-25T19:19:40.563Z,77.10
2017-10-25T19:22:06.774Z,77.20
2017-10-25T19:24:33.750Z,77.70
2017-10-25T19:26:59.992Z,77.70
2017-10-25T19:29:26.254Z,77.40
2017-10-25T19:31:52.442Z,77.30
2017-10-25T19:34:18.709Z,77.30
2017-10-25T19:36:44.963Z,76.70
2017-10-25T19:39:11.863Z,77.40
2017-10-25T19:41:38.050Z,77.30
2017-10-25T19:44:04.164Z,77.70
2017-10-25T19:46:31.180Z,77.60
2017-10-25T19:48:57.369Z,77.50
2017-10-25T19:51:23.577Z,77.70
2017-10-25T19:53:49.760Z,77.70
2017-10-25T19:56:15.951Z,77.10
2017-10-25T19:58:42.434Z,77.20
2017-10-25T20:01:08.643Z,77.00
2017-10-25T20:03:34.832Z,77.40
2017-10-25T20:06:01.093Z,77.40
2017-10-25T20:08:27.288Z,77.30
2017-10-25T20:10:53.469Z,77.50
2017-10-25T20:13:19.651Z,77.50
2017-10-25T20:15:45.838Z,77.20
2017-10-25T20:18:13.256Z,77.80
2017-10-25T20:20:39.400Z,77.70
2017-10-25T20:23:05.591Z,78.00
2017-10-25T20:25:31.874Z,77.70
2017-10-25T20:27:58.810Z,77.40
2017-10-25T20:30:25.755Z,77.40
2017-10-25T20:32:52.880Z,77.60
2017-10-25T20:35:20.064Z,77.80
2017-10-25T20:37:46.609Z,77.80
2017-10-25T20:40:12.834Z,78.30
2017-10-25T20:42:39.755Z,78.20
2017-10-25T20:45:05.993Z,77.70
2017-10-25T20:47:32.204Z,77.70
2017-10-25T20:49:58.801Z,77.40
2017-10-25T20:52:24.944Z,77.20
2017-10-25T20:54:51.161Z,76.70
2017-10-25T20:57:17.384Z,76.80
2017-10-25T20:59:43.562Z,77.40
2017-10-25T21:02:09.815Z,77.40
2017-10-25T21:04:36.709Z,77.60
2017-10-25T21:07:02.863Z,77.50
2017-10-25T21:09:29.053Z,77.30
2017-10-25T21:11:55.233Z,77.70
2017-10-25T21:14:22.145Z,77.70
2017-10-25T21:16:48.342Z,77.60
2017-10-25T21:19:14.505Z,77.50
2017-10-25T21:21:40.642Z,78.00
2017-10-25T21:24:06.912Z,78.60
2017-10-25T21:26:33.066Z,78.10
2017-10-25T21:28:59.291Z,77.70
2017-10-25T21:31:25.469Z,77.70
2017-10-25T21:33:51.616Z,77.80
2017-10-25T21:36:17.788Z,77.60
2017-10-25T21:38:43.934Z,77.90
2017-10-25T21:41:10.092Z,77.60
2017-10-25T21:43:37.055Z,77.90
2017-10-25T21:46:03.237Z,77.90
2017-10-25T21:48:29.856Z,77.30
2017-10-25T21:50:56.061Z,77.10
2017-10-25T21:53:22.225Z,77.20
2017-10-25T21:55:48.429Z,77.60
2017-10-25T21:58:14.631Z,77.40
2017-10-25T22:00:40.827Z,77.40
2017-10-25T22:03:07.731Z,77.20
2017-10-25T22:05:33.931Z,77.20
2017-10-25T22:08:00.112Z,77.60
2017-10-25T22:10:26.410Z,78.00
2017-10-25T22:12:52.612Z,77.80
2017-10-25T22:15:18.892Z,77.50
2017-10-25T22:17:45.061Z,77.50
2017-10-25T22:20:11.284Z,77.40
2017-10-25T22:22:37.486Z,77.30
2017-10-25T22:25:03.747Z,77.20
2017-10-25T22:27:30.668Z,77.50
2017-10-25T22:29:57.561Z,77.80
2017-10-25T22:32:23.784Z,77.60
2017-10-25T22:34:49.953Z,77.40
2017-10-25T22:37:16.056Z,77.80
2017-10-25T22:39:42.256Z,77.70
2017-10-25T22:42:08.400Z,77.90
2017-10-25T22:44:34.562Z,77.30
2017-10-25T22:47:00.702Z,77.50
2017-10-25T22:49:26.870Z,77.30
2017-10-25T22:51:53.068Z,77.00
2017-10-25T22:54:20.017Z,76.80
2017-10-25T22:56:46.241Z,76.80
2017-10-25T22:59:13.216Z,77.50
2017-10-25T23:01:39.461Z,77.50
2017-10-25T23:04:05.649Z,77.60
2017-10-25T23:06:32.905Z,77.70
2017-10-25T23:08:59.853Z,77.30
2017-10-25T23:11:25.996Z,77.20
2017-10-25T23:13:52.162Z,77.80
2017-10-25T23:16:18.316Z,77.50
2017-10-25T23:18:45.217Z,77.50
2017-10-25T23:21:11.389Z,77.40
2017-10-25T23:23:38.265Z,77.70
2017-10-25T23:26:04.422Z,77.70
2017-10-25T23:28:30.560Z,78.00
2017-10-25T23:30:56.752Z,77.20
2017-10-25T23:33:22.898Z,77.40
2017-10-25T23:35:49.064Z,77.20
2017-10-25T23:38:15.989Z,77.50
2017-10-25T23:40:42.878Z,77.60
2017-10-25T23:43:09.035Z,77.50
2017-10-25T23:45:35.185Z,77.50
2017-10-25T23:48:01.356Z,78.10
2017-10-25T23:50:27.558Z,77.80
2017-10-25T23:52:53.749Z,77.70
2017-10-25T23:55:19.914Z,78.00
2017-10-25T23:57:46.063Z,77.30
